Time;durP1;ratioP1;P1;durP2;ratioP2;P2;SDS_P1;SDS_P2;PMS_P1;PMS_P2;Temp;Humidity;BMP_temperature;BMP_pressure;BME280_temperature;BME280_humidity;BME280_pressure;Samples;Min_cycle;Max_cycle;Signal;HPM_P1;HPM_P2
2022/05/06 00:02:51;;;;;;;30.02;18.52;;;;;;;12.22;89.86;99832.25;8505959;27;20570;-72
2022/05/06 00:06:52;;;;;;;22.92;17.33;;;;;;;12.17;89.62;99835.06;8517186;27;20100;-72
2022/05/06 00:10:53;;;;;;;26.25;18.77;;;;;;;12.14;89.72;99841.09;8528119;27;20059;-72
2022/05/06 00:14:54;;;;;;;27.65;19.38;;;;;;;12.12;90.43;99848.72;8461471;27;20047;-72
2022/05/06 00:18:55;;;;;;;30.92;20.48;;;;;;;12.16;90.39;99832.69;8509619;27;20047;-72
2022/05/06 00:22:57;;;;;;;30.13;20.98;;;;;;;12.22;90.40;99832.25;8525661;27;20065;-71
2022/05/06 00:26:59;;;;;;;33.53;20.48;;;;;;;12.23;90.74;99823.03;8531755;27;20043;-72
2022/05/06 00:31:02;;;;;;;29.65;21.10;;;;;;;12.25;91.02;99831.69;8506719;27;20056;-72
2022/05/06 00:35:04;;;;;;;29.05;19.77;;;;;;;12.22;91.37;99837.69;8514218;27;20042;-72
2022/05/06 00:39:05;;;;;;;32.38;20.73;;;;;;;12.20;91.40;99849.94;8520714;27;20050;-72
2022/05/06 00:43:06;;;;;;;32.78;20.77;;;;;;;12.15;91.44;99848.13;8526099;27;20039;-72
2022/05/06 00:47:07;;;;;;;33.00;22.80;;;;;;;12.18;91.09;99852.94;8498810;27;20035;-72
2022/05/06 00:51:09;;;;;;;31.60;21.55;;;;;;;12.21;90.65;99863.16;8490026;27;20065;-71
2022/05/06 00:55:10;;;;;;;29.83;22.02;;;;;;;12.17;90.71;99862.16;8510530;27;20058;-71
2022/05/06 00:59:13;;;;;;;30.13;20.38;;;;;;;12.21;90.82;99863.16;8489758;27;20054;-71
2022/05/06 01:03:15;;;;;;;30.10;21.50;;;;;;;12.22;90.64;99859.34;8512313;27;20042;-71
2022/05/06 01:07:17;;;;;;;29.83;21.52;;;;;;;12.20;90.86;99856.16;8519419;27;20039;-71
2022/05/06 01:11:18;;;;;;;39.33;24.17;;;;;;;12.19;91.60;99854.53;8495820;27;20607;-72
2022/05/06 01:15:20;;;;;;;33.80;23.88;;;;;;;12.16;91.83;99857.84;8489287;27;20038;-72
2022/05/06 01:19:21;;;;;;;37.75;26.50;;;;;;;12.15;91.94;99858.97;8522056;27;20043;-71
2022/05/06 01:23:23;;;;;;;38.33;26.63;;;;;;;12.14;92.06;99868.19;8513065;27;20524;-72
2022/05/06 01:27:28;;;;;;;33.00;24.20;;;;;;;12.15;92.81;99858.16;8500150;27;20038;-71
2022/05/06 01:31:30;;;;;;;38.35;25.98;;;;;;;12.07;93.12;99851.50;8527595;27;20054;-71
2022/05/06 01:35:36;;;;;;;40.22;26.85;;;;;;;12.01;93.57;99858.13;8458900;27;20047;-72
2022/05/06 01:39:38;;;;;;;38.67;26.65;;;;;;;11.95;93.36;99864.72;8464496;27;20104;-72
2022/05/06 01:43:43;;;;;;;39.58;26.42;;;;;;;11.87;93.54;99851.91;8460654;27;20051;-72
2022/05/06 01:47:45;;;;;;;39.03;25.83;;;;;;;11.77;94.01;99852.09;8462883;27;20051;-72
2022/05/06 01:51:46;;;;;;;39.08;26.83;;;;;;;11.69;94.96;99855.44;8484565;27;20047;-72
2022/05/06 01:55:47;;;;;;;37.53;27.98;;;;;;;11.63;95.26;99856.66;8464184;27;20513;-72
2022/05/06 01:59:48;;;;;;;41.38;29.02;;;;;;;11.56;95.62;99856.22;8460603;28;20071;-72
2022/05/06 02:08:08;;;;;;;42.58;29.20;;;;;;;11.50;95.10;99868.22;8477567;27;20051;-71
2022/05/06 02:12:10;;;;;;;44.15;30.10;;;;;;;11.44;95.43;99871.00;8491711;27;20050;-72
2022/05/06 02:16:11;;;;;;;41.58;28.95;;;;;;;11.37;95.55;99865.16;8465599;27;20425;-72
2022/05/06 02:20:13;;;;;;;43.10;30.52;;;;;;;11.30;95.95;99864.75;8487102;28;20047;-71
2022/05/06 02:24:16;;;;;;;42.13;31.45;;;;;;;11.25;96.37;99872.97;8493399;27;20043;-72
2022/05/06 02:28:17;;;;;;;46.78;30.48;;;;;;;11.18;96.53;99877.94;8474126;27;20455;-71
2022/05/06 02:36:37;;;;;;;52.70;33.08;;;;;;;11.01;96.60;99877.63;8464556;28;20477;-72
2022/05/06 02:40:39;;;;;;;45.90;31.30;;;;;;;10.98;96.43;99878.22;8493744;27;20142;-71
2022/05/06 02:44:40;;;;;;;45.05;31.15;;;;;;;10.96;96.69;99885.81;8468701;27;20059;-71
2022/05/06 02:48:41;;;;;;;46.25;30.08;;;;;;;10.87;96.54;99893.78;8464563;28;20052;-72
2022/05/06 02:52:42;;;;;;;47.67;31.08;;;;;;;10.84;96.86;99888.16;8493335;28;20043;-72
2022/05/06 02:56:43;;;;;;;40.58;28.75;;;;;;;10.76;96.77;99897.72;8489847;27;20043;-72
2022/05/06 03:00:44;;;;;;;42.92;29.25;;;;;;;10.69;96.39;99891.03;8445646;28;20058;-72
2022/05/06 03:04:45;;;;;;;43.53;29.50;;;;;;;10.59;96.29;99897.38;8429293;28;20067;-72
2022/05/06 03:08:46;;;;;;;44.70;29.05;;;;;;;10.49;96.15;99903.72;8492908;27;20062;-72
2022/05/06 03:12:47;;;;;;;38.65;28.00;;;;;;;10.41;95.89;99912.47;8484160;27;20055;-72
2022/05/06 03:16:48;;;;;;;47.95;28.38;;;;;;;10.35;95.77;99912.81;8488845;27;20081;-72
2022/05/06 03:20:49;;;;;;;44.42;29.77;;;;;;;10.31;95.88;99906.38;8479327;27;20134;-72
2022/05/06 03:24:50;;;;;;;43.63;29.15;;;;;;;10.27;95.63;99911.53;8478437;27;20051;-71
2022/05/06 03:28:54;;;;;;;39.25;27.13;;;;;;;10.25;95.42;99913.72;8484673;27;20051;-71
2022/05/06 03:32:56;;;;;;;38.83;27.95;;;;;;;10.22;95.30;99919.69;8491154;27;20520;-72
2022/05/06 03:36:57;;;;;;;39.10;27.20;;;;;;;10.20;94.97;99924.59;8490868;27;20052;-71
2022/05/06 03:40:58;;;;;;;41.13;27.85;;;;;;;10.17;95.15;99933.25;8490601;27;20042;-72
2022/05/06 03:44:59;;;;;;;37.42;27.33;;;;;;;10.21;94.72;99942.38;8532315;27;20137;-71
2022/05/06 03:49:01;;;;;;;50.10;33.38;;;;;;;10.26;94.99;99942.31;8525969;27;20099;-71
2022/05/06 03:53:02;;;;;;;47.95;30.40;;;;;;;10.33;95.04;99945.50;8522992;27;20046;-71
2022/05/06 03:57:03;;;;;;;45.80;32.03;;;;;;;10.39;95.98;99936.25;8476631;27;20049;-71
2022/05/06 04:01:04;;;;;;;50.55;34.72;;;;;;;10.49;95.72;99941.53;8520367;27;20119;-71
2022/05/06 04:05:06;;;;;;;51.90;34.25;;;;;;;10.49;95.65;99941.53;8490529;27;20049;-71
2022/05/06 04:09:07;;;;;;;47.85;34.05;;;;;;;10.50;96.03;99943.16;8502969;27;20134;-72
2022/05/06 04:13:08;;;;;;;52.08;33.60;;;;;;;10.49;96.42;99952.34;8480901;27;20385;-72
2022/05/06 04:17:09;;;;;;;46.03;32.35;;;;;;;10.46;96.29;99958.31;8498818;27;20039;-72
2022/05/06 04:25:30;;;;;;;46.13;31.20;;;;;;;10.46;96.46;99963.72;8521593;27;20057;-71
2022/05/06 04:29:31;;;;;;;44.97;32.05;;;;;;;10.51;96.39;99955.56;8529327;27;20054;-72
2022/05/06 04:33:32;;;;;;;48.35;31.08;;;;;;;10.54;96.15;99960.38;8565807;27;20519;-71
2022/05/06 04:37:35;;;;;;;48.72;33.22;;;;;;;10.61;96.45;99970.03;8565900;27;20042;-71
2022/05/06 04:41:35;;;;;;;49.90;31.80;;;;;;;10.72;96.26;99982.34;8565802;27;20496;-71
2022/05/06 04:45:40;;;;;;;51.53;35.22;;;;;;;10.83;95.94;99978.41;8565554;27;20419;-72
2022/05/06 04:49:41;;;;;;;49.35;34.40;;;;;;;10.99;95.85;99987.94;8549328;27;20446;-71
2022/05/06 04:53:43;;;;;;;55.10;36.17;;;;;;;11.08;95.20;99986.19;8496206;27;20099;-72
2022/05/06 04:57:44;;;;;;;52.35;34.90;;;;;;;11.15;95.53;100000.19;8496568;27;20500;-71
2022/05/06 05:01:45;;;;;;;49.17;33.55;;;;;;;11.30;95.06;99989.16;8476844;27;20404;-71
2022/05/06 05:05:46;;;;;;;49.10;33.03;;;;;;;11.42;94.26;100003.03;8496068;27;20104;-71
2022/05/06 05:09:47;;;;;;;43.90;29.40;;;;;;;11.52;94.09;99998.59;8496052;27;20123;-72
2022/05/06 05:13:48;;;;;;;47.95;30.95;;;;;;;11.62;93.43;99995.72;8495584;27;20100;-72
2022/05/06 05:17:49;;;;;;;38.72;26.23;;;;;;;11.64;93.08;99998.91;8495004;27;20039;-71
2022/05/06 05:21:50;;;;;;;35.85;25.17;;;;;;;11.66;92.40;99994.03;8476420;27;20047;-72
2022/05/06 05:25:51;;;;;;;36.47;24.10;;;;;;;11.66;92.15;100002.16;8459074;27;20089;-71
2022/05/06 05:29:52;;;;;;;34.03;21.00;;;;;;;11.71;91.30;100016.41;8495325;27;20039;-72
2022/05/06 05:33:53;;;;;;;31.25;20.50;;;;;;;11.81;90.12;100010.06;8495426;27;20540;-72
2022/05/06 05:37:54;;;;;;;35.00;21.02;;;;;;;12.03;89.58;100018.38;8494679;27;20134;-72
2022/05/06 05:41:55;;;;;;;36.35;19.50;;;;;;;12.19;88.25;100011.59;8494914;27;20055;-72
2022/05/06 05:50:35;;;;;;;24.65;16.52;;;;;;;12.58;85.05;100023.91;8456341;28;20049;-72
2022/05/06 05:54:36;;;;;;;24.92;15.00;;;;;;;12.60;82.83;100010.84;8439583;28;20406;-72
2022/05/06 05:58:38;;;;;;;24.45;14.10;;;;;;;12.61;82.63;100026.03;8456391;28;20048;-72
2022/05/06 06:02:39;;;;;;;20.08;12.90;;;;;;;12.59;81.16;100025.50;8456475;28;20055;-72
2022/05/06 06:06:41;;;;;;;22.30;13.00;;;;;;;12.68;80.83;100034.56;8422321;28;20047;-71
2022/05/06 06:10:42;;;;;;;24.92;14.27;;;;;;;12.79;80.90;100041.41;8388761;28;20606;-71
2022/05/06 06:14:43;;;;;;;22.13;13.48;;;;;;;12.95;80.42;100040.00;8438787;28;20055;-71
2022/05/06 06:18:44;;;;;;;21.20;12.15;;;;;;;13.07;78.38;100053.84;8455942;28;20395;-71
2022/05/06 06:22:45;;;;;;;19.73;11.15;;;;;;;13.11;78.17;100044.03;8465830;28;20051;-72
2022/05/06 06:26:46;;;;;;;18.95;11.70;;;;;;;13.16;76.38;100050.47;8494423;28;20568;-72
2022/05/06 06:30:47;;;;;;;23.88;11.43;;;;;;;13.21;76.05;100053.06;8498909;27;20524;-71
2022/05/06 06:34:49;;;;;;;21.23;11.38;;;;;;;13.21;75.15;100053.88;8501111;27;20103;-72
2022/05/06 06:38:50;;;;;;;30.10;12.45;;;;;;;13.33;75.05;100058.75;8500685;27;20504;-72
2022/05/06 06:42:51;;;;;;;20.15;11.50;;;;;;;13.44;75.27;100062.88;8500931;27;20519;-72
2022/05/06 06:46:54;;;;;;;19.05;11.02;;;;;;;13.57;74.97;100067.47;8500936;27;20111;-72
2022/05/06 06:50:55;;;;;;;15.52;9.38;;;;;;;13.41;73.58;100052.63;8446816;27;20055;-72
2022/05/06 06:54:57;;;;;;;21.10;9.40;;;;;;;13.42;73.36;100065.09;8500595;27;20051;-72
2022/05/06 06:58:59;;;;;;;18.08;8.38;;;;;;;13.39;72.47;100054.84;8500760;27;20099;-73
2022/05/06 07:03:00;;;;;;;17.75;7.07;;;;;;;13.28;71.48;100061.59;8500009;27;20054;-72
2022/05/06 07:15:40;;;;;;;13.25;5.45;;;;;;;13.44;69.26;100057.44;8499548;27;20051;-73
2022/05/06 07:19:41;;;;;;;18.52;5.60;;;;;;;13.51;69.06;100069.50;8499729;27;20542;-72
2022/05/06 07:23:42;;;;;;;17.15;6.15;;;;;;;13.45;68.78;100064.47;8480872;27;20099;-72
2022/05/06 07:27:43;;;;;;;13.88;5.82;;;;;;;13.56;68.44;100065.88;8499298;27;20051;-72
2022/05/06 07:31:44;;;;;;;11.80;5.30;;;;;;;13.65;68.57;100069.47;8499366;27;20039;-72
2022/05/06 07:35:45;;;;;;;15.18;5.25;;;;;;;13.72;68.94;100064.44;8462825;27;20047;-72
2022/05/06 07:39:46;;;;;;;13.60;5.40;;;;;;;13.74;68.28;100073.06;8498467;27;20610;-72
2022/05/06 07:43:47;;;;;;;8.52;4.80;;;;;;;13.87;68.46;100071.41;8498958;27;20492;-72
2022/05/06 07:47:48;;;;;;;12.50;5.72;;;;;;;13.92;67.89;100068.59;8498623;27;20081;-73
2022/05/06 07:51:49;;;;;;;13.50;5.90;;;;;;;14.14;66.24;100070.50;8498383;27;20548;-72
2022/05/06 07:55:50;;;;;;;12.98;5.78;;;;;;;14.27;65.29;100058.78;8461967;27;20051;-72
2022/05/06 07:59:51;;;;;;;11.00;5.60;;;;;;;14.41;65.62;100059.53;8497944;27;20051;-73
2022/05/06 08:08:14;;;;;;;13.52;6.80;;;;;;;14.80;62.67;100070.44;8498258;27;20043;-72
2022/05/06 08:12:15;;;;;;;12.13;6.65;;;;;;;14.89;63.37;100075.13;8479878;27;20051;-73
2022/05/06 08:16:16;;;;;;;15.57;6.22;;;;;;;14.92;62.54;100069.06;8497552;27;20050;-72
2022/05/06 08:20:17;;;;;;;15.80;6.32;;;;;;;15.19;62.31;100079.72;8497685;27;20489;-72
2022/05/06 08:24:19;;;;;;;18.88;5.80;;;;;;;15.20;59.53;100075.91;8497778;27;20493;-73
2022/05/06 08:28:22;;;;;;;12.57;6.13;;;;;;;15.20;58.03;100081.34;8444159;27;20144;-73
2022/05/06 08:32:26;;;;;;;15.25;5.57;;;;;;;15.34;58.31;100081.19;8497394;27;20517;-73
2022/05/06 08:36:30;;;;;;;16.63;5.18;;;;;;;15.44;55.51;100087.16;8497363;27;20085;-73
2022/05/06 08:40:34;;;;;;;15.18;5.75;;;;;;;15.44;55.29;100092.59;8496972;27;20415;-73
2022/05/06 08:50:50;;;;;;;11.57;5.80;;;;;;;15.73;57.20;100083.06;8481045;27;20051;-72
2022/05/06 08:53:24;;;;;;;13.73;6.15;;;;;;;15.94;57.24;100084.06;8495906;27;20496;-73
2022/05/06 08:57:25;;;;;;;12.30;5.47;;;;;;;16.17;56.08;100082.78;8496426;27;20047;-73
2022/05/06 09:01:26;;;;;;;8.43;3.67;;;;;;;16.15;53.17;100085.00;8496435;27;20138;-72
2022/05/06 09:05:27;;;;;;;16.73;4.25;;;;;;;16.34;54.28;100092.81;8496158;27;20096;-73
2022/05/06 09:09:28;;;;;;;6.95;3.45;;;;;;;16.50;53.54;100090.44;8496049;27;20043;-74
2022/05/06 09:13:32;;;;;;;10.20;3.55;;;;;;;16.57;50.08;100090.72;8496246;27;20413;-73
2022/05/06 09:17:34;;;;;;;9.25;3.20;;;;;;;16.71;50.36;100085.88;8459385;27;20085;-72
2022/05/06 09:21:36;;;;;;;11.52;3.72;;;;;;;16.87;47.86;100095.16;8495401;27;20122;-73
2022/05/06 09:25:47;;;;;;;8.38;3.33;;;;;;;16.96;49.73;100087.75;8409145;27;20051;-73
2022/05/06 09:29:52;;;;;;;8.52;4.30;;;;;;;17.20;50.71;100082.50;8495480;27;20057;-72
2022/05/06 09:33:53;;;;;;;7.25;3.35;;;;;;;17.48;50.32;100087.47;8476941;27;20051;-73
2022/05/06 09:37:54;;;;;;;14.00;4.47;;;;;;;17.38;49.61;100087.88;8495020;27;20454;-73
2022/05/06 09:42:04;;;;;;;13.30;4.57;;;;;;;17.43;49.71;100084.94;8494911;27;20161;-73
2022/05/06 09:46:19;;;;;;;10.02;5.05;;;;;;;17.66;49.62;100073.41;8476687;27;20072;-72
2022/05/06 09:50:31;;;;;;;9.52;3.78;;;;;;;17.54;50.66;100077.97;8458853;27;20470;-72
2022/05/06 09:54:35;;;;;;;17.48;4.18;;;;;;;17.56;51.09;100070.22;8494729;27;20044;-72
2022/05/06 09:58:36;;;;;;;8.98;4.60;;;;;;;17.61;50.64;100064.59;8494705;27;20099;-73
2022/05/06 10:02:38;;;;;;;10.57;4.45;;;;;;;17.79;49.99;100077.03;8494318;27;20047;-72
2022/05/06 10:06:39;;;;;;;9.70;3.80;;;;;;;17.77;46.71;100079.28;8476701;27;20480;-72
2022/05/06 10:10:45;;;;;;;10.57;3.38;;;;;;;17.73;46.99;100070.16;8494651;27;20077;-72
2022/05/06 10:14:46;;;;;;;9.35;3.60;;;;;;;17.57;48.02;100074.56;8475865;27;20047;-73
2022/05/06 10:18:47;;;;;;;7.03;2.80;;;;;;;17.88;48.39;100069.53;8476096;27;20485;-73
2022/05/06 10:22:59;;;;;;;11.13;2.95;;;;;;;17.96;47.25;100071.44;8493920;28;20051;-73
2022/05/06 10:27:00;;;;;;;4.50;2.42;;;;;;;18.10;46.05;100076.59;8494163;28;20054;-71
2022/05/06 10:35:42;;;;;;;6.32;2.85;;;;;;;18.18;45.07;100072.19;8493622;28;20058;-71
2022/05/06 10:39:43;;;;;;;5.63;2.17;;;;;;;18.37;44.02;100069.75;8493543;28;20496;-72
2022/05/06 10:43:45;;;;;;;6.22;2.63;;;;;;;18.51;45.60;100070.25;8457549;28;20039;-72
2022/05/06 10:47:45;;;;;;;7.43;2.45;;;;;;;18.61;44.25;100053.47;8493407;28;20196;-72
2022/05/06 10:51:46;;;;;;;9.98;3.08;;;;;;;18.58;44.23;100065.06;8493561;27;20047;-72
2022/05/06 10:55:47;;;;;;;9.27;2.55;;;;;;;18.50;44.55;100063.19;8493812;28;20130;-72
2022/05/06 10:59:54;;;;;;;10.70;2.67;;;;;;;18.70;43.63;100062.34;8493992;28;20047;-73
2022/05/06 11:03:55;;;;;;;8.85;3.13;;;;;;;18.85;43.25;100069.91;8493252;28;20165;-73
2022/05/06 11:07:59;;;;;;;6.70;2.95;;;;;;;18.91;43.61;100067.75;8493465;28;20050;-73
2022/05/06 11:12:00;;;;;;;5.53;2.15;;;;;;;18.86;41.74;100060.56;8493546;28;20054;-72
2022/05/06 11:16:09;;;;;;;8.50;2.13;;;;;;;18.87;41.35;100066.84;8477934;27;20050;-72
2022/05/06 11:20:26;;;;;;;5.53;2.03;;;;;;;18.78;41.00;100069.66;8499566;27;20071;-72
2022/05/06 11:24:30;;;;;;;5.50;1.83;;;;;;;18.96;40.91;100049.16;8500061;27;20548;-73
2022/05/06 11:28:32;;;;;;;9.68;2.33;;;;;;;18.95;40.84;100042.09;8499294;27;20188;-73
2022/05/06 11:32:36;;;;;;;7.30;2.42;;;;;;;19.10;40.41;100042.53;8499204;27;20043;-72
2022/05/06 11:36:37;;;;;;;8.40;3.10;;;;;;;18.97;38.96;100039.81;8480839;27;20055;-73
2022/05/06 11:40:43;;;;;;;6.60;1.88;;;;;;;19.03;40.31;100042.31;8498614;27;20043;-72
2022/05/06 11:49:04;;;;;;;5.70;1.52;;;;;;;19.28;38.45;100043.91;8498410;27;20051;-72
2022/05/06 11:53:08;;;;;;;4.10;1.30;;;;;;;19.34;37.94;100048.00;8498740;27;20126;-72
2022/05/06 11:57:10;;;;;;;4.65;1.77;;;;;;;19.46;36.73;100039.78;8498262;27;20049;-72
2022/05/06 12:01:11;;;;;;;5.55;1.73;;;;;;;19.53;37.83;100034.53;8480463;27;20042;-72
2022/05/06 12:05:13;;;;;;;3.63;1.45;;;;;;;19.87;38.51;100027.72;8461766;27;20043;-72
2022/05/06 12:09:22;;;;;;;7.05;1.65;;;;;;;19.73;36.89;100028.09;8479878;27;20351;-72
2022/05/06 12:13:33;;;;;;;3.30;1.50;;;;;;;19.77;37.19;100023.50;8497950;27;20047;-72
2022/05/06 12:17:36;;;;;;;4.78;1.85;;;;;;;19.85;36.54;100026.44;8497992;27;20480;-71
2022/05/06 12:21:37;;;;;;;6.68;2.03;;;;;;;19.86;36.79;100030.78;8497821;27;20115;-71
2022/05/06 12:25:39;;;;;;;5.25;2.00;;;;;;;19.74;35.92;100026.16;8497581;27;20070;-72
2022/05/06 12:29:41;;;;;;;8.57;2.08;;;;;;;20.01;36.57;100038.28;8443491;27;20477;-72
2022/05/06 12:33:45;;;;;;;8.43;2.17;;;;;;;20.15;36.14;100027.69;8497745;27;20059;-72
2022/05/06 12:37:57;;;;;;;5.88;1.92;;;;;;;20.13;35.35;100030.81;8478705;27;20051;-72
2022/05/06 12:41:59;;;;;;;6.55;1.73;;;;;;;20.08;35.40;100033.00;8496957;27;20081;-72
2022/05/06 12:46:00;;;;;;;5.95;1.80;;;;;;;20.31;35.91;100020.31;8477476;27;20053;-73
2022/05/06 12:50:05;;;;;;;5.95;2.13;;;;;;;20.35;35.29;100015.75;8478483;27;20441;-73
2022/05/06 12:54:10;;;;;;;10.32;2.67;;;;;;;20.18;36.55;100021.53;8496899;27;20047;-72
2022/05/06 12:58:11;;;;;;;8.50;2.97;;;;;;;20.00;35.78;100014.75;8496337;27;20092;-72
2022/05/06 13:02:13;;;;;;;10.23;2.47;;;;;;;20.22;36.37;100012.25;8460032;27;20055;-72
2022/05/06 13:06:13;;;;;;;5.90;2.65;;;;;;;20.30;35.15;99999.53;8496422;27;20063;-73
2022/05/06 13:10:14;;;;;;;7.03;2.38;;;;;;;20.37;36.55;100002.47;8477704;27;20050;-72
2022/05/06 13:14:15;;;;;;;6.10;2.90;;;;;;;20.27;35.55;100008.44;8495762;27;20168;-72
2022/05/06 13:18:16;;;;;;;7.63;2.45;;;;;;;20.40;36.10;100011.94;8495821;27;20542;-72
2022/05/06 13:22:17;;;;;;;5.05;2.10;;;;;;;20.55;35.69;99997.44;8442557;27;20043;-72
2022/05/06 13:26:18;;;;;;;3.40;2.05;;;;;;;21.16;35.53;99989.53;8495466;27;20039;-72
2022/05/06 13:30:19;;;;;;;5.68;2.17;;;;;;;22.49;32.94;99994.59;8409238;27;20069;-72
2022/05/06 13:34:20;;;;;;;4.35;2.00;;;;;;;23.45;32.13;99985.88;8495648;27;20043;-72
2022/05/06 13:38:21;;;;;;;6.57;2.67;;;;;;;23.94;30.38;99992.06;8495390;27;20104;-72
2022/05/06 13:42:22;;;;;;;6.13;2.70;;;;;;;24.20;31.07;99999.47;8495262;27;20159;-73
2022/05/06 13:46:23;;;;;;;6.30;2.35;;;;;;;25.71;29.92;99991.94;8495862;27;20059;-73
2022/05/06 13:50:24;;;;;;;6.30;2.20;;;;;;;26.59;29.44;99980.34;8495242;27;20047;-72
2022/05/06 13:54:25;;;;;;;5.00;2.38;;;;;;;27.54;28.48;99979.47;8458386;27;20051;-73
2022/05/06 14:02:46;;;;;;;5.32;3.08;;;;;;;28.84;25.61;99983.47;8479606;27;20050;-73
2022/05/06 14:06:48;;;;;;;7.05;2.08;;;;;;;29.32;25.16;99979.84;8494955;27;20050;-73
2022/05/06 14:10:48;;;;;;;7.55;2.40;;;;;;;29.83;22.71;99975.25;8494573;27;20389;-73
2022/05/06 14:14:49;;;;;;;3.50;2.00;;;;;;;28.72;23.95;99970.06;8494607;27;20051;-73
2022/05/06 14:18:50;;;;;;;6.47;2.95;;;;;;;28.82;23.85;99980.28;8494781;27;20138;-72
2022/05/06 14:22:51;;;;;;;3.55;2.40;;;;;;;29.70;23.12;99967.47;8494349;27;20047;-73
2022/05/06 14:26:55;;;;;;;6.72;2.50;;;;;;;29.31;23.47;99973.47;8494404;28;20062;-73
2022/05/06 14:30:56;;;;;;;6.35;2.20;;;;;;;27.82;25.49;99979.31;8494707;28;20497;-73
2022/05/06 14:35:16;;;;;;;3.08;1.90;;;;;;;27.44;26.00;99964.41;8494222;28;20050;-72
2022/05/06 14:39:17;;;;;;;5.78;2.50;;;;;;;26.91;25.88;99970.06;8494325;28;20115;-72
2022/05/06 14:43:18;;;;;;;5.25;2.45;;;;;;;27.39;25.66;99955.72;8494246;28;20047;-73
2022/05/06 14:47:19;;;;;;;9.57;2.28;;;;;;;27.01;25.96;99952.63;8494067;28;20130;-73
2022/05/06 14:51:19;;;;;;;3.70;2.05;;;;;;;26.34;26.93;99964.47;8497410;27;20389;-73
2022/05/06 14:55:21;;;;;;;8.27;2.13;;;;;;;25.10;27.48;99974.22;8500776;27;20061;-72
2022/05/06 14:59:22;;;;;;;7.50;2.47;;;;;;;23.91;29.16;99969.94;8500602;27;20043;-73
2022/05/06 15:03:23;;;;;;;3.65;2.05;;;;;;;23.39;29.16;99957.06;8525986;27;20488;-72
2022/05/06 15:07:24;;;;;;;9.82;2.20;;;;;;;23.25;29.62;99959.63;8503636;27;20051;-72
2022/05/06 15:11:28;;;;;;;3.45;1.83;;;;;;;23.65;29.19;99973.56;8504929;27;20063;-73
2022/05/06 15:15:29;;;;;;;3.35;1.60;;;;;;;24.03;28.88;99966.94;8532204;27;20393;-73
2022/05/06 15:19:31;;;;;;;3.97;1.80;;;;;;;24.20;28.56;99965.56;8531709;27;20039;-72
2022/05/06 15:23:32;;;;;;;4.45;1.85;;;;;;;23.50;29.70;99960.78;8525986;27;20046;-72
2022/05/06 15:27:34;;;;;;;3.35;2.20;;;;;;;23.44;30.09;99962.25;8431228;27;20053;-73
2022/05/06 15:31:34;;;;;;;3.88;1.80;;;;;;;23.61;28.53;99961.72;8509561;27;20043;-72
2022/05/06 15:35:35;;;;;;;3.58;1.73;;;;;;;23.99;28.61;99955.88;8512753;27;20098;-73
2022/05/06 15:39:37;;;;;;;3.80;1.75;;;;;;;24.02;27.83;99953.50;8511093;27;20378;-73
2022/05/06 15:43:41;;;;;;;6.70;2.28;;;;;;;25.08;27.03;99943.41;8505029;27;20512;-72
2022/05/06 15:47:42;;;;;;;4.53;1.80;;;;;;;25.12;27.42;99941.44;8510768;27;20206;-72
2022/05/06 15:51:43;;;;;;;2.53;1.90;;;;;;;24.24;28.74;99945.09;8494470;27;20119;-73
2022/05/06 15:55:44;;;;;;;3.63;1.77;;;;;;;24.10;29.88;99955.97;8485131;27;20043;-72
2022/05/06 15:59:47;;;;;;;4.45;1.90;;;;;;;24.03;30.72;99955.09;8486252;27;20536;-72
2022/05/06 16:03:48;;;;;;;2.97;1.75;;;;;;;23.55;30.27;99952.19;8420758;27;20103;-73
2022/05/06 16:07:49;;;;;;;3.28;1.80;;;;;;;22.93;31.65;99943.44;8504568;27;20614;-73
2022/05/06 16:11:50;;;;;;;3.28;1.80;;;;;;;23.00;31.75;99940.78;8460978;27;20072;-73
2022/05/06 16:15:53;;;;;;;3.65;1.90;;;;;;;23.01;31.56;99928.59;8508060;27;20042;-74
2022/05/06 16:19:55;;;;;;;5.05;2.00;;;;;;;22.42;32.29;99922.94;8503066;27;20041;-73
2022/05/06 16:23:56;;;;;;;7.32;1.90;;;;;;;22.18;32.88;99930.38;8466601;27;20046;-73
2022/05/06 16:28:00;;;;;;;6.07;1.52;;;;;;;21.79;33.38;99934.31;8499609;27;20047;-73
2022/05/06 16:32:01;;;;;;;5.13;1.60;;;;;;;21.40;34.24;99934.34;8503016;27;20043;-72
2022/05/06 16:40:21;;;;;;;6.40;1.58;;;;;;;20.74;35.29;99933.59;8451045;27;1665823;-74
2022/05/06 16:44:23;;;;;;;5.45;1.70;;;;;;;20.50;35.83;99938.16;8509027;27;20047;-74
2022/05/06 16:48:24;;;;;;;4.65;1.75;;;;;;;20.26;35.99;99946.50;8502313;27;20134;-73
2022/05/06 16:52:25;;;;;;;3.88;1.50;;;;;;;19.95;36.94;99946.44;8499685;27;20054;-72
2022/05/06 16:56:26;;;;;;;4.90;1.67;;;;;;;19.87;37.73;99933.72;8471758;27;20424;-73
2022/05/06 17:00:29;;;;;;;4.80;1.80;;;;;;;19.73;37.32;99934.91;8505133;27;20043;-73
2022/05/06 17:04:30;;;;;;;2.90;1.45;;;;;;;19.48;37.73;99933.41;8495561;27;20059;-73
2022/05/06 17:08:31;;;;;;;10.25;1.60;;;;;;;19.37;38.09;99948.72;8473616;27;20088;-73
2022/05/06 17:12:33;;;;;;;4.80;1.35;;;;;;;19.16;38.12;99934.38;8496999;27;20080;-73
2022/05/06 17:16:34;;;;;;;9.18;2.15;;;;;;;19.10;37.93;99938.50;8497059;27;20492;-73
2022/05/06 17:20:35;;;;;;;5.65;1.95;;;;;;;18.85;39.34;99927.59;8454185;27;20066;-73
2022/05/06 17:24:36;;;;;;;131.05;45.22;;;;;;;18.59;39.72;99929.09;8446561;27;20047;-73
2022/05/06 17:28:37;;;;;;;63.10;24.02;;;;;;;18.49;40.34;99924.84;8497593;27;20055;-73
2022/05/06 17:32:38;;;;;;;18.85;8.48;;;;;;;18.40;40.44;99924.16;8502197;27;20042;-73
2022/05/06 17:36:39;;;;;;;16.05;6.53;;;;;;;18.26;40.72;99926.41;8497664;27;20064;-73
2022/05/06 17:40:41;;;;;;;8.82;2.70;;;;;;;18.08;40.89;99936.75;8463286;27;20047;-73
2022/05/06 17:44:42;;;;;;;8.88;3.00;;;;;;;17.95;41.76;99927.72;8459081;27;20051;-72
2022/05/06 17:48:43;;;;;;;11.43;3.75;;;;;;;17.75;42.54;99938.69;8460553;27;20510;-71
2022/05/06 17:52:44;;;;;;;11.13;5.20;;;;;;;17.59;43.95;99941.22;8461769;27;20055;-72
2022/05/06 17:56:45;;;;;;;28.15;12.73;;;;;;;17.38;45.03;99943.16;8460322;27;20058;-73
2022/05/06 18:05:05;;;;;;;;;;;;;;;16.88;46.21;99950.22;8427275;27;20058;-72
2022/05/06 18:09:06;;;;;;;36.85;18.50;;;;;;;16.60;48.02;99953.75;8440466;27;19919;-72
2022/05/06 18:13:07;;;;;;;51.13;22.85;;;;;;;16.37;48.95;99951.25;8466343;27;20526;-73
2022/05/06 18:17:09;;;;;;;34.33;16.55;;;;;;;16.14;49.28;99947.16;8463682;27;20097;-72
2022/05/06 18:21:10;;;;;;;35.30;16.10;;;;;;;15.82;50.54;99950.41;8468353;27;20050;-71
2022/05/06 18:25:13;;;;;;;32.53;15.80;;;;;;;15.61;51.92;99967.41;8467786;27;20064;-71
2022/05/06 18:29:13;;;;;;;24.33;12.18;;;;;;;15.44;52.97;99966.59;8461058;28;20477;-72
2022/05/06 18:33:21;;;;;;;26.75;12.20;;;;;;;15.25;53.92;99968.81;8469881;28;20506;-72
2022/05/06 18:37:22;;;;;;;19.77;10.40;;;;;;;15.03;55.11;99967.00;8491244;27;20051;-72
2022/05/06 18:41:23;;;;;;;38.67;20.77;;;;;;;14.86;55.68;99967.00;8512868;27;20484;-72
2022/05/06 18:45:24;;;;;;;34.25;17.15;;;;;;;14.67;55.89;99973.47;8508196;27;20563;-72
2022/05/06 18:49:25;;;;;;;33.28;19.98;;;;;;;14.47;56.96;99982.19;8502505;27;20142;-72
2022/05/06 18:53:26;;;;;;;32.63;17.70;;;;;;;14.26;57.95;99975.66;8477694;27;20377;-72
2022/05/06 18:57:28;;;;;;;28.77;13.90;;;;;;;14.10;58.55;99983.41;8520973;27;20079;-73
2022/05/06 19:01:28;;;;;;;22.48;12.10;;;;;;;13.94;58.88;99985.72;8526288;27;20447;-72
2022/05/06 19:05:32;;;;;;;23.85;13.55;;;;;;;13.80;59.30;99995.81;8524395;27;20513;-72
2022/05/06 19:09:33;;;;;;;20.95;10.82;;;;;;;13.64;59.86;99991.84;8525664;27;20138;-72
2022/05/06 19:13:34;;;;;;;17.90;9.05;;;;;;;13.50;60.48;99991.09;8524802;27;20042;-72
2022/05/06 19:17:35;;;;;;;13.95;7.00;;;;;;;13.38;60.69;99988.13;8485188;28;20071;-72
2022/05/06 19:25:56;;;;;;;9.00;5.05;;;;;;;13.08;61.46;99984.94;8502463;27;20537;-71
2022/05/06 19:29:57;;;;;;;11.43;4.25;;;;;;;12.93;61.44;99987.97;8525106;27;20515;-72
2022/05/06 19:33:57;;;;;;;8.52;4.43;;;;;;;12.80;61.94;99994.19;8522904;27;20067;-72
2022/05/06 19:38:02;;;;;;;7.45;4.07;;;;;;;12.65;62.62;99998.00;8518686;27;20046;-72
2022/05/06 19:42:03;;;;;;;13.57;3.88;;;;;;;12.54;62.89;100001.22;8508365;27;20126;-72